createdAt,value
2023-11-25T00:00:29.813Z,98745.91
2023-11-25T00:02:56.535Z,98732.66
2023-11-25T00:05:23.266Z,98729.16
2023-11-25T00:07:49.943Z,98726.50
2023-11-25T00:10:16.950Z,98719.53
2023-11-25T00:12:44.388Z,98741.56
2023-11-25T00:15:11.457Z,98748.56
2023-11-25T00:17:38.958Z,98745.91
2023-11-25T00:20:06.442Z,98751.19
2023-11-25T00:22:33.156Z,98744.09
2023-11-25T00:24:59.844Z,98742.41
2023-11-25T00:27:26.551Z,98750.25
2023-11-25T00:29:53.181Z,98756.50
2023-11-25T00:32:20.323Z,98767.00
2023-11-25T00:34:47.649Z,98757.25
2023-11-25T00:37:14.409Z,98757.25
2023-11-25T00:39:41.233Z,98759.91
2023-11-25T00:42:07.898Z,98764.25
2023-11-25T00:44:34.602Z,98761.59
2023-11-25T00:47:03.742Z,98760.75
2023-11-25T00:49:30.968Z,98762.56
2023-11-25T00:51:58.813Z,98746.66
2023-11-25T00:54:25.470Z,98738.72
2023-11-25T00:56:52.078Z,98737.75
2023-11-25T00:59:18.955Z,98732.44
2023-11-25T01:01:45.752Z,98742.09
2023-11-25T01:04:12.922Z,98728.13
2023-11-25T01:06:39.577Z,98742.19
2023-11-25T01:09:09.125Z,98721.97
2023-11-25T01:11:35.959Z,98727.28
2023-11-25T01:14:02.672Z,98719.41
2023-11-25T01:16:29.455Z,98711.47
2023-11-25T01:18:56.451Z,98707.97
2023-11-25T01:21:23.369Z,98721.09
2023-11-25T01:23:50.041Z,98717.59
2023-11-25T01:26:16.765Z,98716.75
2023-11-25T01:28:43.817Z,98725.56
2023-11-25T01:31:11.474Z,98727.34
2023-11-25T01:33:38.642Z,98725.56
2023-11-25T01:36:06.049Z,98714.03
2023-11-25T01:38:33.035Z,98724.72
2023-11-25T01:41:01.519Z,98722.91
2023-11-25T01:43:29.385Z,98709.66
2023-11-25T01:45:59.330Z,98710.63
2023-11-25T01:48:26.611Z,98701.81
2023-11-25T01:50:53.389Z,98700.88
2023-11-25T01:53:20.721Z,98695.56
2023-11-25T01:55:48.107Z,98691.97
2023-11-25T01:58:18.924Z,98690.19
2023-11-25T02:00:50.241Z,98685.81
2023-11-25T02:03:17.638Z,98694.59
2023-11-25T02:05:45.598Z,98702.47
2023-11-25T02:08:13.045Z,98696.41
2023-11-25T02:10:43.519Z,98688.47
2023-11-25T02:13:10.528Z,98681.34
2023-11-25T02:15:37.864Z,98682.31
2023-11-25T02:18:04.815Z,98685.81
2023-11-25T02:20:37.048Z,98678.72
2023-11-25T02:23:04.538Z,98665.47
2023-11-25T02:25:31.339Z,98670.75
2023-11-25T02:27:58.089Z,98667.19
2023-11-25T02:30:24.893Z,98662.81
2023-11-25T02:32:51.938Z,98676.06
2023-11-25T02:35:22.152Z,98688.47
2023-11-25T02:37:48.864Z,98698.13
2023-11-25T02:40:18.572Z,98693.75
2023-11-25T02:42:48.733Z,98693.75
2023-11-25T02:45:19.864Z,98701.72
2023-11-25T02:47:48.216Z,98703.50
2023-11-25T02:50:15.377Z,98711.38
2023-11-25T02:52:42.200Z,98706.16
2023-11-25T02:55:12.237Z,98701.72
2023-11-25T02:57:40.220Z,98698.22
2023-11-25T03:00:17.901Z,98699.06
2023-11-25T03:02:45.343Z,98708.81
2023-11-25T03:05:12.839Z,98707.00
2023-11-25T03:07:39.780Z,98704.34
2023-11-25T03:10:08.065Z,98706.06
2023-11-25T03:12:35.504Z,98712.22
2023-11-25T03:15:06.223Z,98705.19
2023-11-25T03:17:33.041Z,98703.44
2023-11-25T03:19:59.836Z,98711.38
2023-11-25T03:22:27.138Z,98716.66
2023-11-25T03:24:53.970Z,98704.28
2023-11-25T03:27:20.855Z,98703.44
2023-11-25T03:29:47.670Z,98704.28
2023-11-25T03:32:15.543Z,98703.44
2023-11-25T03:34:43.445Z,98707.84
2023-11-25T03:37:10.263Z,98709.56
2023-11-25T03:39:37.506Z,98705.19
2023-11-25T03:42:05.865Z,98714.13
2023-11-25T03:44:32.725Z,98705.19
2023-11-25T03:46:59.806Z,98705.09
2023-11-25T03:49:26.823Z,98704.28
2023-11-25T03:51:53.584Z,98707.84
2023-11-25T03:54:20.227Z,98709.56
2023-11-25T03:56:46.862Z,98705.19
2023-11-25T03:59:13.506Z,98719.31
2023-11-25T04:01:43.178Z,98712.31
2023-11-25T04:04:11.878Z,98713.16
2023-11-25T04:06:38.641Z,98714.88
2023-11-25T04:09:06.036Z,98715.78
2023-11-25T04:11:32.793Z,98714.13
2023-11-25T04:13:59.746Z,98710.50
2023-11-25T04:16:26.474Z,98710.50
2023-11-25T04:18:53.183Z,98697.50
2023-11-25T04:21:23.001Z,98697.91
2023-11-25T04:23:56.752Z,98710.63
2023-11-25T04:26:26.726Z,98699.63
2023-11-25T04:28:53.926Z,98707.19
2023-11-25T04:31:22.001Z,98713.00
2023-11-25T04:33:48.910Z,98708.22
2023-11-25T04:36:21.636Z,98714.09
2023-11-25T04:38:48.269Z,98713.66
2023-11-25T04:41:15.097Z,98707.94
2023-11-25T04:43:41.778Z,98711.13
2023-11-25T04:46:12.188Z,98722.97
2023-11-25T04:48:38.816Z,98719.06
2023-11-25T04:51:05.696Z,98720.31
2023-11-25T04:53:32.336Z,98712.78
2023-11-25T04:55:59.109Z,98715.84
2023-11-25T04:58:28.237Z,98711.81
2023-11-25T05:00:55.418Z,98723.56
2023-11-25T05:03:23.177Z,98727.34
2023-11-25T05:05:49.825Z,98732.94
2023-11-25T05:08:18.129Z,98717.38
2023-11-25T05:10:44.870Z,98720.34
2023-11-25T05:13:13.657Z,98725.94
2023-11-25T05:15:43.043Z,98726.25
2023-11-25T05:18:09.681Z,98724.75
2023-11-25T05:20:36.314Z,98736.37
2023-11-25T05:23:05.623Z,98734.03
2023-11-25T05:25:33.915Z,98730.00
2023-11-25T05:28:01.844Z,98737.28
2023-11-25T05:30:28.493Z,98737.47
2023-11-25T05:32:55.169Z,98737.88
2023-11-25T05:35:21.879Z,98741.59
2023-11-25T05:37:51.767Z,98733.97
2023-11-25T05:40:18.586Z,98737.59
2023-11-25T05:42:52.709Z,98738.84
2023-11-25T05:45:21.588Z,98734.69
2023-11-25T05:47:48.953Z,98735.00
2023-11-25T05:50:21.247Z,98726.63
2023-11-25T05:52:48.297Z,98725.12
2023-11-25T05:55:16.269Z,98724.56
2023-11-25T05:57:45.525Z,98730.97
2023-11-25T06:00:13.788Z,98738.25
2023-11-25T06:02:40.813Z,98745.50
2023-11-25T06:05:08.119Z,98742.97
2023-11-25T06:07:35.048Z,98741.34
2023-11-25T06:10:05.113Z,98748.63
2023-11-25T06:12:33.018Z,98747.97
2023-11-25T06:15:00.566Z,98754.28
2023-11-25T06:17:27.729Z,98762.19
2023-11-25T06:19:54.491Z,98763.81
2023-11-25T06:22:22.674Z,98757.97
2023-11-25T06:24:49.651Z,98766.87
2023-11-25T06:27:17.571Z,98770.34
2023-11-25T06:29:44.611Z,98778.06
2023-11-25T06:32:11.234Z,98776.91
2023-11-25T06:34:38.085Z,98772.03
2023-11-25T06:37:04.778Z,98784.69
2023-11-25T06:39:33.230Z,98763.03
2023-11-25T06:42:01.430Z,98759.28
2023-11-25T06:44:28.567Z,98771.16
2023-11-25T06:46:55.282Z,98773.25
2023-11-25T06:49:22.078Z,98771.00
2023-11-25T06:51:49.312Z,98763.06
2023-11-25T06:54:16.372Z,98769.53
2023-11-25T06:56:43.193Z,98773.34
2023-11-25T06:59:09.875Z,98779.03
2023-11-25T07:01:36.749Z,98783.16
2023-11-25T07:04:05.591Z,98783.66
2023-11-25T07:06:32.494Z,98779.50
2023-11-25T07:09:01.503Z,98789.56
2023-11-25T07:11:28.873Z,98799.59
2023-11-25T07:13:55.730Z,98807.00
2023-11-25T07:16:23.293Z,98806.66
2023-11-25T07:18:50.331Z,98794.97
2023-11-25T07:21:17.021Z,98799.22
2023-11-25T07:23:46.442Z,98797.28
2023-11-25T07:26:16.056Z,98799.84
2023-11-25T07:28:43.520Z,98797.91
2023-11-25T07:31:13.041Z,98800.47
2023-11-25T07:33:39.846Z,98797.81
2023-11-25T07:36:07.647Z,98792.44
2023-11-25T07:38:34.371Z,98793.38
2023-11-25T07:41:01.423Z,98789.66
2023-11-25T07:43:28.151Z,98793.88
2023-11-25T07:45:54.808Z,98788.47
2023-11-25T07:48:21.671Z,98788.34
2023-11-25T07:50:51.145Z,98794.50
2023-11-25T07:53:18.485Z,98782.06
2023-11-25T07:55:45.243Z,98791.63
2023-11-25T07:58:12.444Z,98790.66
2023-11-25T08:00:39.189Z,98790.53
2023-11-25T08:03:06.031Z,98792.34
2023-11-25T08:05:32.932Z,98796.81
2023-11-25T08:07:59.771Z,98795.75
2023-11-25T08:10:32.437Z,98802.59
2023-11-25T08:13:00.815Z,98803.34
2023-11-25T08:15:28.030Z,98803.94
2023-11-25T08:17:56.043Z,98810.97
2023-11-25T08:20:23.474Z,98809.66
2023-11-25T08:22:50.207Z,98808.34
2023-11-25T08:25:16.981Z,98810.66
2023-11-25T08:27:43.729Z,98811.03
2023-11-25T08:30:11.010Z,98810.59
2023-11-25T08:32:44.005Z,98818.19
2023-11-25T08:35:11.256Z,98811.78
2023-11-25T08:37:39.977Z,98811.66
2023-11-25T08:40:29.046Z,98831.00
2023-11-25T08:42:57.567Z,98835.34
2023-11-25T08:45:25.588Z,98839.69
2023-11-25T08:47:52.358Z,98832.56
2023-11-25T08:50:20.465Z,98841.28
2023-11-25T08:52:49.906Z,98841.16
2023-11-25T08:55:19.764Z,98845.50
2023-11-25T08:57:47.106Z,98841.78
2023-11-25T09:00:23.536Z,98849.59
2023-11-25T09:02:53.126Z,98827.41
2023-11-25T09:05:24.257Z,98832.63
2023-11-25T09:07:56.457Z,98827.94
2023-11-25T09:10:24.914Z,98838.22
2023-11-25T09:12:54.698Z,98840.53
2023-11-25T09:15:21.777Z,98831.31
2023-11-25T09:17:48.455Z,98826.75
2023-11-25T09:20:17.677Z,98822.16
2023-11-25T09:22:44.568Z,98835.22
2023-11-25T09:25:11.624Z,98832.31
2023-11-25T09:27:38.444Z,98823.12
2023-11-25T09:30:05.764Z,98819.25
2023-11-25T09:32:32.703Z,98823.25
2023-11-25T09:34:59.457Z,98820.34
2023-11-25T09:37:26.621Z,98819.16
2023-11-25T09:39:55.442Z,98820.47
2023-11-25T09:42:22.199Z,98821.94
2023-11-25T09:44:50.056Z,98814.56
2023-11-25T09:47:19.201Z,98816.97
2023-11-25T09:49:45.887Z,98817.81
2023-11-25T09:52:12.946Z,98812.37
2023-11-25T09:54:39.642Z,98814.91
2023-11-25T09:57:07.557Z,98811.16
2023-11-25T09:59:34.466Z,98811.78
2023-11-25T10:02:02.301Z,98815.31
2023-11-25T10:04:29.117Z,98814.44
2023-11-25T10:06:55.928Z,98809.12
2023-11-25T10:09:22.648Z,98813.50
2023-11-25T10:11:49.442Z,98810.84
2023-11-25T10:14:18.620Z,98823.16
2023-11-25T10:16:47.065Z,98820.37
2023-11-25T10:19:24.154Z,98823.28
2023-11-25T10:21:54.065Z,98824.84
2023-11-25T10:24:23.239Z,98828.94
2023-11-25T10:26:51.264Z,98826.28
2023-11-25T10:29:21.110Z,98816.38
2023-11-25T10:31:55.413Z,98823.38
2023-11-25T10:34:22.778Z,98819.75
2023-11-25T10:36:53.620Z,98817.81
2023-11-25T10:39:21.497Z,98815.03
2023-11-25T10:41:52.507Z,98814.59
2023-11-25T10:44:19.655Z,98810.94
2023-11-25T10:46:46.340Z,98815.16
2023-11-25T10:49:13.261Z,98808.38
2023-11-25T10:51:40.748Z,98814.16
2023-11-25T10:54:10.872Z,98809.06
2023-11-25T10:56:38.384Z,98815.59
2023-11-25T10:59:07.037Z,98806.03
2023-11-25T11:01:34.335Z,98802.53
2023-11-25T11:04:06.675Z,98808.56
2023-11-25T11:06:51.662Z,98810.28
2023-11-25T11:09:20.675Z,98817.16
2023-11-25T11:11:56.649Z,98804.72
2023-11-25T11:14:23.734Z,98799.53
2023-11-25T11:16:53.915Z,98793.28
2023-11-25T11:19:29.238Z,98802.19
2023-11-25T11:21:59.133Z,98804.00
2023-11-25T11:24:36.637Z,98799.69
2023-11-25T11:27:31.162Z,98793.50
2023-11-25T11:30:04.499Z,98785.78
2023-11-25T11:32:35.390Z,98777.81
2023-11-25T11:35:07.012Z,98777.94
2023-11-25T11:37:38.899Z,98779.72
2023-11-25T11:40:07.986Z,98772.72
2023-11-25T11:42:39.446Z,98773.56
2023-11-25T11:45:19.029Z,98770.91
2023-11-25T11:48:04.292Z,98778.16
2023-11-25T11:50:34.734Z,98771.03
2023-11-25T11:53:01.830Z,98773.69
2023-11-25T11:55:54.744Z,98770.22
2023-11-25T11:58:26.751Z,98771.19
2023-11-25T12:01:03.145Z,98773.91
2023-11-25T12:03:31.420Z,98775.84
2023-11-25T12:05:58.559Z,98765.97
2023-11-25T12:08:25.734Z,98763.44
2023-11-25T12:10:52.821Z,98759.81
2023-11-25T12:13:32.646Z,98754.62
2023-11-25T12:16:01.164Z,98770.56
2023-11-25T12:18:28.969Z,98759.09
2023-11-25T12:20:56.194Z,98754.84
2023-11-25T12:23:28.197Z,98754.84
2023-11-25T12:26:01.198Z,98761.00
2023-11-25T12:28:28.026Z,98761.97
2023-11-25T12:30:54.843Z,98761.13
2023-11-25T12:33:22.170Z,98753.16
2023-11-25T12:35:49.008Z,98772.59
2023-11-25T12:38:17.906Z,98761.25
2023-11-25T12:40:46.727Z,98767.53
2023-11-25T12:43:13.846Z,98778.22
2023-11-25T12:45:41.989Z,98773.91
2023-11-25T12:48:12.903Z,98766.78
2023-11-25T12:51:11.860Z,98781.97
2023-11-25T12:53:52.780Z,98783.88
2023-11-25T12:56:20.173Z,98784.00
2023-11-25T12:58:47.587Z,98784.00
2023-11-25T13:01:14.627Z,98790.50
2023-11-25T13:03:44.102Z,98786.16
2023-11-25T13:06:11.186Z,98794.22
2023-11-25T13:08:41.068Z,98805.69
2023-11-25T13:11:12.080Z,98808.34
2023-11-25T13:13:39.145Z,98817.31
2023-11-25T13:16:09.754Z,98821.91
2023-11-25T13:18:36.884Z,98826.25
2023-11-25T13:21:08.259Z,98826.38
2023-11-25T13:23:35.334Z,98827.44
2023-11-25T13:26:03.150Z,98831.06
2023-11-25T13:28:30.199Z,98828.47
2023-11-25T13:30:59.407Z,98841.87
2023-11-25T13:33:26.073Z,98842.97
2023-11-25T13:35:52.736Z,98840.31
2023-11-25T13:38:19.659Z,98850.16
2023-11-25T13:40:46.497Z,98853.78
2023-11-25T13:43:21.592Z,98868.00
2023-11-25T13:45:49.689Z,98861.00
2023-11-25T13:48:18.169Z,98852.09
2023-11-25T13:50:46.594Z,98861.00
2023-11-25T13:53:19.451Z,98870.00
2023-11-25T13:55:55.620Z,98870.84
2023-11-25T13:58:22.102Z,98876.28
2023-11-25T14:00:48.979Z,98883.28
2023-11-25T14:03:16.104Z,98886.88
2023-11-25T14:05:52.996Z,98887.84
2023-11-25T14:08:23.536Z,98889.75
2023-11-25T14:10:50.382Z,98898.56
2023-11-25T14:13:19.297Z,98905.78
2023-11-25T14:15:45.954Z,98914.69
2023-11-25T14:18:15.765Z,98905.88
2023-11-25T14:20:43.502Z,98912.97
2023-11-25T14:23:11.470Z,98913.94
2023-11-25T14:25:38.498Z,98914.78
2023-11-25T14:28:06.025Z,98912.25
2023-11-25T14:30:39.316Z,98911.41
2023-11-25T14:33:06.688Z,98914.19
2023-11-25T14:35:34.071Z,98925.72
2023-11-25T14:38:05.891Z,98927.53
2023-11-25T14:40:37.242Z,98929.31
2023-11-25T14:43:07.891Z,98932.09
2023-11-25T14:45:35.886Z,98927.00
2023-11-25T14:48:04.383Z,98930.50
2023-11-25T14:50:31.097Z,98933.16
2023-11-25T14:52:57.915Z,98926.16
2023-11-25T14:55:25.302Z,98942.19
2023-11-25T14:57:52.004Z,98949.28
2023-11-25T15:00:19.271Z,98936.97
2023-11-25T15:02:45.991Z,98945.88
2023-11-25T15:05:14.066Z,98944.19
2023-11-25T15:07:40.714Z,98946.00
2023-11-25T15:10:11.453Z,98945.22
2023-11-25T15:12:38.133Z,98952.34
2023-11-25T15:15:05.241Z,98950.66
2023-11-25T15:17:31.985Z,98948.00
2023-11-25T15:19:58.770Z,98944.50
2023-11-25T15:22:25.426Z,98953.31
2023-11-25T15:24:52.364Z,98951.63
2023-11-25T15:27:19.402Z,98953.31
2023-11-25T15:30:11.770Z,98956.72
2023-11-25T15:32:40.774Z,98959.38
2023-11-25T15:35:08.803Z,98964.53
2023-11-25T15:37:35.871Z,98977.81
2023-11-25T15:40:02.747Z,98972.63
2023-11-25T15:42:29.564Z,98976.00
2023-11-25T15:44:56.678Z,98981.41
2023-11-25T15:47:23.389Z,98983.09
2023-11-25T15:49:50.199Z,98986.59
2023-11-25T15:52:16.919Z,98976.00
2023-11-25T15:54:43.689Z,98992.84
2023-11-25T15:57:10.364Z,98989.38
2023-11-25T15:59:37.091Z,99002.63
2023-11-25T16:02:04.036Z,98990.28
2023-11-25T16:04:31.677Z,99007.06
2023-11-25T16:06:58.891Z,99007.06
2023-11-25T16:09:25.623Z,99015.03
2023-11-25T16:11:52.281Z,99021.19
2023-11-25T16:14:18.996Z,99025.63
2023-11-25T16:16:45.802Z,99024.75
2023-11-25T16:19:12.584Z,99027.41
2023-11-25T16:21:40.848Z,99039.81
2023-11-25T16:24:08.146Z,99042.47
2023-11-25T16:26:35.412Z,99055.72
2023-11-25T16:29:03.674Z,99050.41
2023-11-25T16:31:30.585Z,99061.88
2023-11-25T16:33:57.336Z,99063.66
2023-11-25T16:36:23.934Z,99061.00
2023-11-25T16:38:50.823Z,99066.31
2023-11-25T16:41:17.504Z,99070.78
2023-11-25T16:43:46.895Z,99075.22
2023-11-25T16:46:13.591Z,99085.84
2023-11-25T16:48:48.789Z,99085.84
2023-11-25T16:51:20.449Z,99093.78
2023-11-25T16:53:47.882Z,99100.03
2023-11-25T16:56:14.906Z,99101.84
2023-11-25T16:58:41.739Z,99103.53
2023-11-25T17:01:08.461Z,99099.19
2023-11-25T17:03:36.079Z,99113.28
2023-11-25T17:06:06.697Z,99113.41
2023-11-25T17:08:33.725Z,99128.44
2023-11-25T17:11:00.612Z,99128.44
2023-11-25T17:13:29.423Z,99139.03
2023-11-25T17:15:56.254Z,99138.19
2023-11-25T17:18:22.999Z,99140.00
2023-11-25T17:20:49.851Z,99142.66
2023-11-25T17:23:16.526Z,99139.03
2023-11-25T17:25:43.247Z,99140.84
2023-11-25T17:28:10.065Z,99142.66
2023-11-25T17:30:37.288Z,99147.94
2023-11-25T17:33:04.415Z,99140.00
2023-11-25T17:35:31.263Z,99143.59
2023-11-25T17:37:58.204Z,99151.56
2023-11-25T17:40:28.163Z,99149.75
2023-11-25T17:42:54.886Z,99138.41
2023-11-25T17:45:22.803Z,99138.41
2023-11-25T17:47:49.826Z,99137.47
2023-11-25T17:50:17.067Z,99136.59
2023-11-25T17:52:43.764Z,99139.34
2023-11-25T17:55:10.901Z,99140.22
2023-11-25T17:57:37.675Z,99138.31
2023-11-25T18:00:06.232Z,99133.13
2023-11-25T18:02:33.104Z,99138.41
2023-11-25T18:05:00.868Z,99136.59
2023-11-25T18:07:28.742Z,99128.66
2023-11-25T18:09:55.744Z,99135.84
2023-11-25T18:12:22.426Z,99133.97
2023-11-25T18:14:49.168Z,99128.84
2023-11-25T18:17:15.895Z,99130.53
2023-11-25T18:19:42.610Z,99130.53
2023-11-25T18:22:10.725Z,99131.50
2023-11-25T18:24:37.664Z,99131.50
2023-11-25T18:27:04.465Z,99137.66
2023-11-25T18:29:32.288Z,99135.00
2023-11-25T18:31:59.017Z,99134.16
2023-11-25T18:34:25.895Z,99137.66
2023-11-25T18:36:52.625Z,99127.16
2023-11-25T18:39:19.362Z,99128.00
2023-11-25T18:41:46.900Z,99126.19
2023-11-25T18:44:13.647Z,99138.59
2023-11-25T18:46:40.689Z,99126.19
2023-11-25T18:49:07.858Z,99139.56
2023-11-25T18:51:35.128Z,99142.09
2023-11-25T18:54:02.630Z,99147.50
2023-11-25T18:56:29.267Z,99142.22
2023-11-25T18:58:55.976Z,99151.97
2023-11-25T19:01:29.263Z,99144.88
2023-11-25T19:03:56.063Z,99143.06
2023-11-25T19:06:23.235Z,99143.06
2023-11-25T19:08:49.902Z,99146.66
2023-11-25T19:11:16.692Z,99150.25
2023-11-25T19:13:43.443Z,99152.91
2023-11-25T19:16:13.013Z,99157.34
2023-11-25T19:18:43.779Z,99152.03
2023-11-25T19:21:13.852Z,99160.09
2023-11-25T19:23:40.533Z,99153.84
2023-11-25T19:26:07.419Z,99159.25
2023-11-25T19:28:35.296Z,99153.97
2023-11-25T19:31:02.577Z,99157.47
2023-11-25T19:33:29.346Z,99162.75
2023-11-25T19:35:56.212Z,99176.84
2023-11-25T19:38:22.924Z,99176.00
2023-11-25T19:40:49.690Z,99185.75
2023-11-25T19:43:16.330Z,99185.75
2023-11-25T19:45:42.989Z,99193.72
2023-11-25T19:48:10.338Z,99184.06
2023-11-25T19:50:37.677Z,99191.91
2023-11-25T19:53:04.780Z,99183.13
2023-11-25T19:55:31.503Z,99192.03
2023-11-25T19:57:58.144Z,99181.41
2023-11-25T20:00:25.246Z,99190.22
2023-11-25T20:02:52.255Z,99195.50
2023-11-25T20:05:21.712Z,99196.47
2023-11-25T20:07:49.207Z,99195.63
2023-11-25T20:10:16.365Z,99198.28
2023-11-25T20:12:43.783Z,99199.97
2023-11-25T20:15:10.899Z,99206.13
2023-11-25T20:17:38.203Z,99208.87
2023-11-25T20:20:05.576Z,99204.44
2023-11-25T20:22:32.464Z,99208.87
2023-11-25T20:25:01.017Z,99209.81
2023-11-25T20:27:27.619Z,99210.75
2023-11-25T20:29:54.338Z,99208.94
2023-11-25T20:32:22.156Z,99206.22
2023-11-25T20:34:49.308Z,99208.94
2023-11-25T20:37:18.952Z,99197.50
2023-11-25T20:39:45.886Z,99208.94
2023-11-25T20:42:12.533Z,99204.50
2023-11-25T20:44:39.380Z,99201.97
2023-11-25T20:47:06.393Z,99194.00
2023-11-25T20:49:33.110Z,99193.16
2023-11-25T20:52:00.894Z,99185.22
2023-11-25T20:54:27.645Z,99191.38
2023-11-25T20:56:54.275Z,99186.06
2023-11-25T20:59:21.118Z,99195.81
2023-11-25T21:01:47.824Z,99187.75
2023-11-25T21:04:14.571Z,99186.91
2023-11-25T21:06:41.283Z,99187.88
2023-11-25T21:09:09.349Z,99187.88
2023-11-25T21:11:36.165Z,99184.38
2023-11-25T21:14:02.932Z,99187.97
2023-11-25T21:16:29.632Z,99185.31
2023-11-25T21:18:56.456Z,99186.16
2023-11-25T21:21:23.118Z,99182.69
2023-11-25T21:23:50.046Z,99187.97
2023-11-25T21:26:19.293Z,99186.25
2023-11-25T21:28:46.013Z,99177.47
2023-11-25T21:31:13.215Z,99173.00
2023-11-25T21:33:39.830Z,99179.16
2023-11-25T21:36:06.944Z,99182.69
2023-11-25T21:38:33.628Z,99187.97
2023-11-25T21:41:01.065Z,99180.09
2023-11-25T21:43:27.805Z,99173.00
2023-11-25T21:45:54.554Z,99181.91
2023-11-25T21:48:21.475Z,99186.25
2023-11-25T21:50:48.269Z,99178.31
2023-11-25T21:53:15.046Z,99181.91
2023-11-25T21:55:42.078Z,99174.91
2023-11-25T21:58:09.501Z,99183.72
2023-11-25T22:00:36.236Z,99186.34
2023-11-25T22:03:04.160Z,99185.50
2023-11-25T22:05:30.958Z,99182.88
2023-11-25T22:07:58.239Z,99185.50
2023-11-25T22:10:29.492Z,99179.25
2023-11-25T22:12:57.116Z,99175.88
2023-11-25T22:15:24.221Z,99179.38
2023-11-25T22:17:51.240Z,99181.06
2023-11-25T22:20:18.184Z,99175.88
2023-11-25T22:22:45.176Z,99174.16
2023-11-25T22:25:13.873Z,99181.16
2023-11-25T22:27:41.652Z,99181.16
2023-11-25T22:30:10.810Z,99186.47
2023-11-25T22:32:37.594Z,99180.31
2023-11-25T22:35:04.911Z,99181.25
2023-11-25T22:37:31.737Z,99184.75
2023-11-25T22:39:58.667Z,99185.63
2023-11-25T22:42:26.619Z,99186.53
2023-11-25T22:44:53.312Z,99187.50
2023-11-25T22:47:20.800Z,99189.31
2023-11-25T22:49:47.520Z,99188.34
2023-11-25T22:52:14.280Z,99190.25
2023-11-25T22:54:41.363Z,99191.09
2023-11-25T22:57:09.175Z,99190.25
2023-11-25T22:59:37.810Z,99188.47
2023-11-25T23:02:05.683Z,99201.72
2023-11-25T23:04:33.780Z,99202.66
2023-11-25T23:07:00.816Z,99195.56
2023-11-25T23:09:29.094Z,99195.56
2023-11-25T23:11:55.947Z,99196.41
2023-11-25T23:14:22.714Z,99204.47
2023-11-25T23:16:49.531Z,99199.16
2023-11-25T23:19:16.912Z,99191.22
2023-11-25T23:21:43.977Z,99183.28
2023-11-25T23:24:10.592Z,99184.97
2023-11-25T23:26:41.022Z,99177.13
2023-11-25T23:29:07.854Z,99180.63
2023-11-25T23:31:34.822Z,99177.97
2023-11-25T23:34:01.438Z,99172.66
2023-11-25T23:36:28.238Z,99180.63
2023-11-25T23:38:55.069Z,99173.59
2023-11-25T23:41:21.864Z,99181.47
2023-11-25T23:43:48.596Z,99179.78
2023-11-25T23:46:15.336Z,99177.97
2023-11-25T23:48:41.996Z,99178.03
2023-11-25T23:51:08.669Z,99178.03
2023-11-25T23:53:35.321Z,99183.34
2023-11-25T23:56:05.142Z,99178.91
2023-11-25T23:58:31.800Z,99190.41
